sensor_id;sensor_type;location;lat;lon;timestamp;temperature;humidity
20035;DHT22;10178;48.034;9.800;2023-04-03T00:02:17;8.80;99.90
20035;DHT22;10178;48.034;9.800;2023-04-03T00:04:42;8.70;99.90
20035;DHT22;10178;48.034;9.800;2023-04-03T00:07:08;8.80;99.90
20035;DHT22;10178;48.034;9.800;2023-04-03T00:09:34;8.80;99.90
20035;DHT22;10178;48.034;9.800;2023-04-03T00:11:59;8.70;99.90
20035;DHT22;10178;48.034;9.800;2023-04-03T00:14:25;8.70;99.90
20035;DHT22;10178;48.034;9.800;2023-04-03T00:16:51;8.50;99.90
20035;DHT22;10178;48.034;9.800;2023-04-03T00:19:16;8.60;99.90
20035;DHT22;10178;48.034;9.800;2023-04-03T00:21:42;8.20;99.90
20035;DHT22;10178;48.034;9.800;2023-04-03T00:24:08;8.20;99.90
20035;DHT22;10178;48.034;9.800;2023-04-03T00:26:33;6.50;99.90
20035;DHT22;10178;48.034;9.800;2023-04-03T00:28:59;5.70;99.90
20035;DHT22;10178;48.034;9.800;2023-04-03T00:31:25;6.30;99.90
20035;DHT22;10178;48.034;9.800;2023-04-03T00:33:50;6.30;99.90
20035;DHT22;10178;48.034;9.800;2023-04-03T00:36:16;6.40;99.90
20035;DHT22;10178;48.034;9.800;2023-04-03T00:38:41;6.90;99.90
20035;DHT22;10178;48.034;9.800;2023-04-03T00:41:08;7.60;99.90
20035;DHT22;10178;48.034;9.800;2023-04-03T00:43:33;7.40;99.90
20035;DHT22;10178;48.034;9.800;2023-04-03T00:46:00;7.80;99.90
20035;DHT22;10178;48.034;9.800;2023-04-03T00:48:44;8.10;99.90
20035;DHT22;10178;48.034;9.800;2023-04-03T00:51:13;8.00;99.90
20035;DHT22;10178;48.034;9.800;2023-04-03T00:53:51;8.10;99.90
20035;DHT22;10178;48.034;9.800;2023-04-03T00:56:21;8.20;99.90
20035;DHT22;10178;48.034;9.800;2023-04-03T00:58:56;8.30;99.90
20035;DHT22;10178;48.034;9.800;2023-04-03T01:01:25;8.30;99.90
20035;DHT22;10178;48.034;9.800;2023-04-03T01:03:51;8.30;99.90
20035;DHT22;10178;48.034;9.800;2023-04-03T01:06:21;8.00;99.90
20035;DHT22;10178;48.034;9.800;2023-04-03T01:08:49;8.10;99.90
20035;DHT22;10178;48.034;9.800;2023-04-03T01:11:15;8.20;99.90
20035;DHT22;10178;48.034;9.800;2023-04-03T01:13:41;8.20;99.90
20035;DHT22;10178;48.034;9.800;2023-04-03T01:16:07;8.30;99.90
20035;DHT22;10178;48.034;9.800;2023-04-03T01:18:36;8.30;99.90
20035;DHT22;10178;48.034;9.800;2023-04-03T01:21:41;8.30;99.90
20035;DHT22;10178;48.034;9.800;2023-04-03T01:26:53;8.30;99.90
20035;DHT22;10178;48.034;9.800;2023-04-03T01:29:19;8.30;99.90
20035;DHT22;10178;48.034;9.800;2023-04-03T01:31:50;8.20;99.90
20035;DHT22;10178;48.034;9.800;2023-04-03T01:34:16;8.20;99.90
20035;DHT22;10178;48.034;9.800;2023-04-03T01:36:42;8.20;99.90
20035;DHT22;10178;48.034;9.800;2023-04-03T01:39:08;8.20;99.90
20035;DHT22;10178;48.034;9.800;2023-04-03T01:41:34;8.20;99.90
20035;DHT22;10178;48.034;9.800;2023-04-03T01:43:59;8.10;99.90
20035;DHT22;10178;48.034;9.800;2023-04-03T01:46:25;8.20;99.90
20035;DHT22;10178;48.034;9.800;2023-04-03T01:48:51;8.10;99.90
20035;DHT22;10178;48.034;9.800;2023-04-03T01:51:16;7.70;99.90
20035;DHT22;10178;48.034;9.800;2023-04-03T01:53:42;7.80;99.90
20035;DHT22;10178;48.034;9.800;2023-04-03T01:56:08;7.40;99.90
20035;DHT22;10178;48.034;9.800;2023-04-03T01:58:34;7.50;99.90
20035;DHT22;10178;48.034;9.800;2023-04-03T02:01:00;7.50;99.90
20035;DHT22;10178;48.034;9.800;2023-04-03T02:03:25;7.50;99.90
20035;DHT22;10178;48.034;9.800;2023-04-03T02:05:51;7.70;99.90
20035;DHT22;10178;48.034;9.800;2023-04-03T02:08:17;7.10;99.90
20035;DHT22;10178;48.034;9.800;2023-04-03T02:10:50;7.40;99.90
20035;DHT22;10178;48.034;9.800;2023-04-03T02:13:16;7.50;99.90
20035;DHT22;10178;48.034;9.800;2023-04-03T02:15:42;7.70;99.90
20035;DHT22;10178;48.034;9.800;2023-04-03T02:18:08;7.80;99.90
20035;DHT22;10178;48.034;9.800;2023-04-03T02:20:34;7.80;99.90
20035;DHT22;10178;48.034;9.800;2023-04-03T02:23:00;7.80;99.90
20035;DHT22;10178;48.034;9.800;2023-04-03T02:25:26;7.80;99.90
20035;DHT22;10178;48.034;9.800;2023-04-03T02:27:51;7.80;99.90
20035;DHT22;10178;48.034;9.800;2023-04-03T02:30:17;7.80;99.90
20035;DHT22;10178;48.034;9.800;2023-04-03T02:32:43;7.50;99.90
20035;DHT22;10178;48.034;9.800;2023-04-03T02:35:10;7.50;99.90
20035;DHT22;10178;48.034;9.800;2023-04-03T02:37:35;7.60;99.90
20035;DHT22;10178;48.034;9.800;2023-04-03T02:40:01;7.70;99.90
20035;DHT22;10178;48.034;9.800;2023-04-03T02:42:27;7.70;99.90
20035;DHT22;10178;48.034;9.800;2023-04-03T02:44:52;7.70;99.90
20035;DHT22;10178;48.034;9.800;2023-04-03T02:47:18;7.80;99.90
20035;DHT22;10178;48.034;9.800;2023-04-03T02:49:44;7.70;99.90
20035;DHT22;10178;48.034;9.800;2023-04-03T02:52:11;7.80;99.90
20035;DHT22;10178;48.034;9.800;2023-04-03T02:54:37;7.70;99.90
20035;DHT22;10178;48.034;9.800;2023-04-03T02:57:03;7.70;99.90
20035;DHT22;10178;48.034;9.800;2023-04-03T02:59:28;7.70;99.90
20035;DHT22;10178;48.034;9.800;2023-04-03T03:01:54;7.60;99.90
20035;DHT22;10178;48.034;9.800;2023-04-03T03:04:21;7.60;99.90
20035;DHT22;10178;48.034;9.800;2023-04-03T03:06:46;7.60;99.90
20035;DHT22;10178;48.034;9.800;2023-04-03T03:09:12;7.60;99.90
20035;DHT22;10178;48.034;9.800;2023-04-03T03:11:39;7.60;99.90
20035;DHT22;10178;48.034;9.800;2023-04-03T03:14:05;7.60;99.90
20035;DHT22;10178;48.034;9.800;2023-04-03T03:16:30;7.60;99.90
20035;DHT22;10178;48.034;9.800;2023-04-03T03:18:56;7.60;99.90
20035;DHT22;10178;48.034;9.800;2023-04-03T03:21:22;7.60;99.90
20035;DHT22;10178;48.034;9.800;2023-04-03T03:23:47;7.60;99.90
20035;DHT22;10178;48.034;9.800;2023-04-03T03:26:13;7.60;99.90
20035;DHT22;10178;48.034;9.800;2023-04-03T03:28:39;7.60;99.90
20035;DHT22;10178;48.034;9.800;2023-04-03T03:31:06;7.60;99.90
20035;DHT22;10178;48.034;9.800;2023-04-03T03:33:32;7.60;99.90
20035;DHT22;10178;48.034;9.800;2023-04-03T03:35:59;7.60;99.90
20035;DHT22;10178;48.034;9.800;2023-04-03T03:38:24;7.60;99.90
20035;DHT22;10178;48.034;9.800;2023-04-03T03:40:51;7.50;99.90
20035;DHT22;10178;48.034;9.800;2023-04-03T03:43:17;7.50;99.90
20035;DHT22;10178;48.034;9.800;2023-04-03T03:45:43;7.50;99.90
20035;DHT22;10178;48.034;9.800;2023-04-03T03:48:09;7.50;99.90
20035;DHT22;10178;48.034;9.800;2023-04-03T03:50:35;7.50;99.90
20035;DHT22;10178;48.034;9.800;2023-04-03T03:53:01;7.50;99.90
20035;DHT22;10178;48.034;9.800;2023-04-03T03:55:26;7.50;99.90
20035;DHT22;10178;48.034;9.800;2023-04-03T03:57:52;7.40;99.90
20035;DHT22;10178;48.034;9.800;2023-04-03T04:00:18;7.40;99.90
20035;DHT22;10178;48.034;9.800;2023-04-03T04:02:44;7.40;99.90
20035;DHT22;10178;48.034;9.800;2023-04-03T04:05:10;7.40;99.90
20035;DHT22;10178;48.034;9.800;2023-04-03T04:07:35;7.30;99.90
20035;DHT22;10178;48.034;9.800;2023-04-03T04:10:01;7.00;99.90
20035;DHT22;10178;48.034;9.800;2023-04-03T04:12:27;7.00;99.90
20035;DHT22;10178;48.034;9.800;2023-04-03T04:14:52;7.00;99.90
20035;DHT22;10178;48.034;9.800;2023-04-03T04:17:18;7.00;99.90
20035;DHT22;10178;48.034;9.800;2023-04-03T04:19:43;6.90;99.90
20035;DHT22;10178;48.034;9.800;2023-04-03T04:22:10;6.90;99.90
20035;DHT22;10178;48.034;9.800;2023-04-03T04:24:35;6.90;99.90
20035;DHT22;10178;48.034;9.800;2023-04-03T04:27:01;7.00;99.90
20035;DHT22;10178;48.034;9.800;2023-04-03T04:29:26;7.00;99.90
20035;DHT22;10178;48.034;9.800;2023-04-03T04:31:52;7.00;99.90
20035;DHT22;10178;48.034;9.800;2023-04-03T04:34:17;7.00;99.90
20035;DHT22;10178;48.034;9.800;2023-04-03T04:36:43;7.00;99.90
20035;DHT22;10178;48.034;9.800;2023-04-03T04:39:09;7.00;99.90
20035;DHT22;10178;48.034;9.800;2023-04-03T04:41:34;7.00;99.90
20035;DHT22;10178;48.034;9.800;2023-04-03T04:44:00;7.00;99.90
20035;DHT22;10178;48.034;9.800;2023-04-03T04:46:26;7.00;99.90
20035;DHT22;10178;48.034;9.800;2023-04-03T04:48:52;7.00;99.90
20035;DHT22;10178;48.034;9.800;2023-04-03T04:51:18;7.00;99.90
20035;DHT22;10178;48.034;9.800;2023-04-03T04:53:44;6.90;99.90
20035;DHT22;10178;48.034;9.800;2023-04-03T04:56:10;7.00;99.90
20035;DHT22;10178;48.034;9.800;2023-04-03T04:58:36;6.90;99.90
20035;DHT22;10178;48.034;9.800;2023-04-03T05:01:10;6.90;99.90
20035;DHT22;10178;48.034;9.800;2023-04-03T05:03:36;7.00;99.90
20035;DHT22;10178;48.034;9.800;2023-04-03T05:06:02;6.90;99.90
20035;DHT22;10178;48.034;9.800;2023-04-03T05:08:28;6.90;99.90
20035;DHT22;10178;48.034;9.800;2023-04-03T05:10:54;6.90;99.90
20035;DHT22;10178;48.034;9.800;2023-04-03T05:13:20;6.90;99.90
20035;DHT22;10178;48.034;9.800;2023-04-03T05:15:46;7.00;99.90
20035;DHT22;10178;48.034;9.800;2023-04-03T05:18:12;6.90;99.90
20035;DHT22;10178;48.034;9.800;2023-04-03T05:20:37;6.90;99.90
20035;DHT22;10178;48.034;9.800;2023-04-03T05:23:03;6.90;99.90
20035;DHT22;10178;48.034;9.800;2023-04-03T05:25:29;6.90;99.90
20035;DHT22;10178;48.034;9.800;2023-04-03T05:27:55;6.90;99.90
20035;DHT22;10178;48.034;9.800;2023-04-03T05:30:21;6.90;99.90
20035;DHT22;10178;48.034;9.800;2023-04-03T05:32:47;6.90;99.90
20035;DHT22;10178;48.034;9.800;2023-04-03T05:35:13;6.10;99.90
20035;DHT22;10178;48.034;9.800;2023-04-03T05:37:38;6.40;99.90
20035;DHT22;10178;48.034;9.800;2023-04-03T05:40:06;6.50;99.90
20035;DHT22;10178;48.034;9.800;2023-04-03T05:42:32;6.60;99.90
20035;DHT22;10178;48.034;9.800;2023-04-03T05:44:58;6.60;99.90
20035;DHT22;10178;48.034;9.800;2023-04-03T05:47:24;6.50;99.90
20035;DHT22;10178;48.034;9.800;2023-04-03T05:49:49;6.60;99.90
20035;DHT22;10178;48.034;9.800;2023-04-03T05:52:33;6.60;99.90
20035;DHT22;10178;48.034;9.800;2023-04-03T05:55:00;6.70;99.90
20035;DHT22;10178;48.034;9.800;2023-04-03T05:57:26;6.70;99.90
20035;DHT22;10178;48.034;9.800;2023-04-03T05:59:52;6.70;99.90
20035;DHT22;10178;48.034;9.800;2023-04-03T06:02:20;6.70;99.90
20035;DHT22;10178;48.034;9.800;2023-04-03T06:04:46;6.60;99.90
20035;DHT22;10178;48.034;9.800;2023-04-03T06:07:15;6.70;99.90
20035;DHT22;10178;48.034;9.800;2023-04-03T06:09:41;6.70;99.90
20035;DHT22;10178;48.034;9.800;2023-04-03T06:12:08;6.30;99.90
20035;DHT22;10178;48.034;9.800;2023-04-03T06:14:33;6.40;99.90
20035;DHT22;10178;48.034;9.800;2023-04-03T06:16:59;6.50;99.90
20035;DHT22;10178;48.034;9.800;2023-04-03T06:19:25;6.60;99.90
20035;DHT22;10178;48.034;9.800;2023-04-03T06:21:51;6.60;99.90
20035;DHT22;10178;48.034;9.800;2023-04-03T06:24:17;6.50;99.90
20035;DHT22;10178;48.034;9.800;2023-04-03T06:26:45;6.50;99.90
20035;DHT22;10178;48.034;9.800;2023-04-03T06:29:11;6.10;99.90
20035;DHT22;10178;48.034;9.800;2023-04-03T06:31:37;6.00;99.90
20035;DHT22;10178;48.034;9.800;2023-04-03T06:34:03;6.20;99.90
20035;DHT22;10178;48.034;9.800;2023-04-03T06:36:29;6.30;99.90
20035;DHT22;10178;48.034;9.800;2023-04-03T06:38:55;6.40;99.90
20035;DHT22;10178;48.034;9.800;2023-04-03T06:41:21;6.50;99.90
20035;DHT22;10178;48.034;9.800;2023-04-03T06:43:47;6.50;99.90
20035;DHT22;10178;48.034;9.800;2023-04-03T06:46:17;6.50;99.90
20035;DHT22;10178;48.034;9.800;2023-04-03T06:48:43;6.50;99.90
20035;DHT22;10178;48.034;9.800;2023-04-03T06:51:22;6.60;99.90
20035;DHT22;10178;48.034;9.800;2023-04-03T06:53:48;6.60;99.90
20035;DHT22;10178;48.034;9.800;2023-04-03T06:56:15;6.50;99.90
20035;DHT22;10178;48.034;9.800;2023-04-03T06:58:40;6.50;99.90
20035;DHT22;10178;48.034;9.800;2023-04-03T07:01:07;6.60;99.90
20035;DHT22;10178;48.034;9.800;2023-04-03T07:03:33;6.60;99.90
20035;DHT22;10178;48.034;9.800;2023-04-03T07:05:58;6.60;99.90
20035;DHT22;10178;48.034;9.800;2023-04-03T07:08:24;6.50;99.90
20035;DHT22;10178;48.034;9.800;2023-04-03T07:10:51;6.40;99.90
20035;DHT22;10178;48.034;9.800;2023-04-03T07:13:17;6.40;99.90
20035;DHT22;10178;48.034;9.800;2023-04-03T07:15:42;6.50;99.90
20035;DHT22;10178;48.034;9.800;2023-04-03T07:18:08;6.60;99.90
20035;DHT22;10178;48.034;9.800;2023-04-03T07:20:35;6.50;99.90
20035;DHT22;10178;48.034;9.800;2023-04-03T07:23:00;6.60;99.90
20035;DHT22;10178;48.034;9.800;2023-04-03T07:25:27;6.60;99.90
20035;DHT22;10178;48.034;9.800;2023-04-03T07:27:53;6.50;99.90
20035;DHT22;10178;48.034;9.800;2023-04-03T07:30:20;6.40;99.90
20035;DHT22;10178;48.034;9.800;2023-04-03T07:32:46;6.40;99.90
20035;DHT22;10178;48.034;9.800;2023-04-03T07:35:12;6.40;99.90
20035;DHT22;10178;48.034;9.800;2023-04-03T07:37:37;6.10;99.90
20035;DHT22;10178;48.034;9.800;2023-04-03T07:40:04;6.10;99.90
20035;DHT22;10178;48.034;9.800;2023-04-03T07:42:29;6.30;99.90
20035;DHT22;10178;48.034;9.800;2023-04-03T07:44:55;6.40;99.90
20035;DHT22;10178;48.034;9.800;2023-04-03T07:47:22;6.40;99.90
20035;DHT22;10178;48.034;9.800;2023-04-03T07:49:47;6.40;99.90
20035;DHT22;10178;48.034;9.800;2023-04-03T07:52:13;6.50;99.90
20035;DHT22;10178;48.034;9.800;2023-04-03T07:54:41;6.40;99.90
20035;DHT22;10178;48.034;9.800;2023-04-03T07:57:06;6.40;99.90
20035;DHT22;10178;48.034;9.800;2023-04-03T07:59:32;6.40;99.90
20035;DHT22;10178;48.034;9.800;2023-04-03T08:01:58;6.40;99.90
20035;DHT22;10178;48.034;9.800;2023-04-03T08:04:23;6.50;99.90
20035;DHT22;10178;48.034;9.800;2023-04-03T08:06:50;6.50;99.90
20035;DHT22;10178;48.034;9.800;2023-04-03T08:09:16;6.50;99.90
20035;DHT22;10178;48.034;9.800;2023-04-03T08:11:42;6.50;99.90
20035;DHT22;10178;48.034;9.800;2023-04-03T08:14:07;6.20;99.90
20035;DHT22;10178;48.034;9.800;2023-04-03T08:16:33;6.30;99.90
20035;DHT22;10178;48.034;9.800;2023-04-03T08:18:59;6.40;99.90
20035;DHT22;10178;48.034;9.800;2023-04-03T08:21:25;6.50;99.90
20035;DHT22;10178;48.034;9.800;2023-04-03T08:23:51;6.10;99.90
20035;DHT22;10178;48.034;9.800;2023-04-03T08:26:19;5.90;99.90
20035;DHT22;10178;48.034;9.800;2023-04-03T08:28:46;5.80;99.90
20035;DHT22;10178;48.034;9.800;2023-04-03T08:31:15;5.90;99.90
20035;DHT22;10178;48.034;9.800;2023-04-03T08:33:41;6.00;99.90
20035;DHT22;10178;48.034;9.800;2023-04-03T08:36:16;5.90;99.90
20035;DHT22;10178;48.034;9.800;2023-04-03T08:38:41;6.10;99.90
20035;DHT22;10178;48.034;9.800;2023-04-03T08:41:15;6.10;99.90
20035;DHT22;10178;48.034;9.800;2023-04-03T08:44:15;5.80;99.90
20035;DHT22;10178;48.034;9.800;2023-04-03T08:52:15;6.30;99.90
20035;DHT22;10178;48.034;9.800;2023-04-03T08:54:53;6.10;99.90
20035;DHT22;10178;48.034;9.800;2023-04-03T08:57:30;5.80;99.90
20035;DHT22;10178;48.034;9.800;2023-04-03T09:00:07;5.90;99.90
20035;DHT22;10178;48.034;9.800;2023-04-03T09:02:41;6.10;99.90
20035;DHT22;10178;48.034;9.800;2023-04-03T09:05:15;6.20;99.90
20035;DHT22;10178;48.034;9.800;2023-04-03T09:07:57;6.30;99.90
20035;DHT22;10178;48.034;9.800;2023-04-03T09:10:28;6.40;99.90
20035;DHT22;10178;48.034;9.800;2023-04-03T09:15:45;6.20;99.90
20035;DHT22;10178;48.034;9.800;2023-04-03T09:18:16;6.30;99.90
20035;DHT22;10178;48.034;9.800;2023-04-03T09:20:54;6.10;99.90
20035;DHT22;10178;48.034;9.800;2023-04-03T09:23:37;6.20;99.90
20035;DHT22;10178;48.034;9.800;2023-04-03T09:26:09;6.20;99.90
20035;DHT22;10178;48.034;9.800;2023-04-03T09:28:39;6.10;99.90
20035;DHT22;10178;48.034;9.800;2023-04-03T09:31:37;6.20;99.90
20035;DHT22;10178;48.034;9.800;2023-04-03T09:34:10;6.40;99.90
20035;DHT22;10178;48.034;9.800;2023-04-03T09:36:41;6.50;99.90
20035;DHT22;10178;48.034;9.800;2023-04-03T09:39:12;6.60;99.90
20035;DHT22;10178;48.034;9.800;2023-04-03T09:41:38;6.70;99.90
20035;DHT22;10178;48.034;9.800;2023-04-03T09:47:22;6.70;99.90
20035;DHT22;10178;48.034;9.800;2023-04-03T09:49:49;6.80;99.90
20035;DHT22;10178;48.034;9.800;2023-04-03T09:52:24;6.70;99.90
20035;DHT22;10178;48.034;9.800;2023-04-03T09:54:50;6.00;99.90
20035;DHT22;10178;48.034;9.800;2023-04-03T09:57:16;6.20;99.90
20035;DHT22;10178;48.034;9.800;2023-04-03T09:59:56;6.40;99.90
20035;DHT22;10178;48.034;9.800;2023-04-03T10:02:39;6.50;99.90
20035;DHT22;10178;48.034;9.800;2023-04-03T10:10:41;6.30;99.90
20035;DHT22;10178;48.034;9.800;2023-04-03T10:13:15;6.20;99.90
20035;DHT22;10178;48.034;9.800;2023-04-03T10:15:50;6.30;99.90
20035;DHT22;10178;48.034;9.800;2023-04-03T10:18:40;6.30;99.90
20035;DHT22;10178;48.034;9.800;2023-04-03T10:21:20;6.30;99.90
20035;DHT22;10178;48.034;9.800;2023-04-03T10:24:01;6.00;99.90
20035;DHT22;10178;48.034;9.800;2023-04-03T10:34:38;6.50;99.90
20035;DHT22;10178;48.034;9.800;2023-04-03T10:37:26;6.70;99.90
20035;DHT22;10178;48.034;9.800;2023-04-03T10:45:26;6.50;99.90
20035;DHT22;10178;48.034;9.800;2023-04-03T10:48:11;6.70;99.90
20035;DHT22;10178;48.034;9.800;2023-04-03T10:53:37;7.00;99.90
20035;DHT22;10178;48.034;9.800;2023-04-03T10:56:29;7.00;99.90
20035;DHT22;10178;48.034;9.800;2023-04-03T10:59:07;6.90;99.90
20035;DHT22;10178;48.034;9.800;2023-04-03T11:01:41;6.90;99.90
20035;DHT22;10178;48.034;9.800;2023-04-03T11:04:09;6.60;99.90
20035;DHT22;10178;48.034;9.800;2023-04-03T11:09:26;6.70;99.90
20035;DHT22;10178;48.034;9.800;2023-04-03T11:11:57;6.80;99.90
20035;DHT22;10178;48.034;9.800;2023-04-03T11:14:34;6.90;99.90
20035;DHT22;10178;48.034;9.800;2023-04-03T11:22:30;6.90;99.90
20035;DHT22;10178;48.034;9.800;2023-04-03T11:25:24;6.90;99.90
20035;DHT22;10178;48.034;9.800;2023-04-03T11:28:02;6.80;99.90
20035;DHT22;10178;48.034;9.800;2023-04-03T11:30:45;7.00;99.90
20035;DHT22;10178;48.034;9.800;2023-04-03T11:35:58;7.20;99.90
20035;DHT22;10178;48.034;9.800;2023-04-03T11:38:37;7.30;99.90
20035;DHT22;10178;48.034;9.800;2023-04-03T11:41:07;6.70;99.90
20035;DHT22;10178;48.034;9.800;2023-04-03T11:43:38;6.90;99.90
20035;DHT22;10178;48.034;9.800;2023-04-03T11:46:07;7.10;99.90
20035;DHT22;10178;48.034;9.800;2023-04-03T11:53:42;7.20;99.90
20035;DHT22;10178;48.034;9.800;2023-04-03T12:01:45;7.00;99.90
20035;DHT22;10178;48.034;9.800;2023-04-03T12:04:12;6.90;99.90
20035;DHT22;10178;48.034;9.800;2023-04-03T12:14:54;6.90;99.90
20035;DHT22;10178;48.034;9.800;2023-04-03T12:17:25;7.00;99.90
20035;DHT22;10178;48.034;9.800;2023-04-03T12:19:52;7.00;99.90
20035;DHT22;10178;48.034;9.800;2023-04-03T12:22:21;7.00;99.90
20035;DHT22;10178;48.034;9.800;2023-04-03T12:24:51;7.00;99.90
20035;DHT22;10178;48.034;9.800;2023-04-03T12:27:29;7.00;99.90
20035;DHT22;10178;48.034;9.800;2023-04-03T12:44:26;6.90;99.90
20035;DHT22;10178;48.034;9.800;2023-04-03T12:46:51;7.10;99.90
20035;DHT22;10178;48.034;9.800;2023-04-03T12:51:46;6.60;99.90
20035;DHT22;10178;48.034;9.800;2023-04-03T12:56:47;6.80;99.90
20035;DHT22;10178;48.034;9.800;2023-04-03T12:59:24;7.10;99.90
20035;DHT22;10178;48.034;9.800;2023-04-03T13:01:58;7.20;99.90
20035;DHT22;10178;48.034;9.800;2023-04-03T13:04:26;7.30;99.90
20035;DHT22;10178;48.034;9.800;2023-04-03T13:06:52;7.30;99.90
20035;DHT22;10178;48.034;9.800;2023-04-03T13:09:23;7.10;99.90
20035;DHT22;10178;48.034;9.800;2023-04-03T13:14:23;6.80;99.90
20035;DHT22;10178;48.034;9.800;2023-04-03T13:17:12;7.00;99.90
20035;DHT22;10178;48.034;9.800;2023-04-03T13:19:39;6.80;99.90
20035;DHT22;10178;48.034;9.800;2023-04-03T13:22:33;7.00;99.90
20035;DHT22;10178;48.034;9.800;2023-04-03T13:25:06;7.10;99.90
20035;DHT22;10178;48.034;9.800;2023-04-03T13:27:32;7.20;99.90
20035;DHT22;10178;48.034;9.800;2023-04-03T13:30:00;6.90;99.90
20035;DHT22;10178;48.034;9.800;2023-04-03T13:32:28;6.80;99.90
20035;DHT22;10178;48.034;9.800;2023-04-03T13:34:54;6.90;99.90
20035;DHT22;10178;48.034;9.800;2023-04-03T13:37:26;6.80;99.90
20035;DHT22;10178;48.034;9.800;2023-04-03T13:42:32;7.00;99.90
20035;DHT22;10178;48.034;9.800;2023-04-03T13:45:23;7.40;99.90
20035;DHT22;10178;48.034;9.800;2023-04-03T13:47:51;7.90;99.90
20035;DHT22;10178;48.034;9.800;2023-04-03T13:50:22;8.20;99.90
20035;DHT22;10178;48.034;9.800;2023-04-03T13:53:11;8.60;99.90
20035;DHT22;10178;48.034;9.800;2023-04-03T13:58:25;8.50;99.90
20035;DHT22;10178;48.034;9.800;2023-04-03T14:01:20;8.60;99.90
20035;DHT22;10178;48.034;9.800;2023-04-03T14:03:59;8.70;99.90
20035;DHT22;10178;48.034;9.800;2023-04-03T14:06:26;8.70;99.90
20035;DHT22;10178;48.034;9.800;2023-04-03T14:08:52;8.70;99.90
20035;DHT22;10178;48.034;9.800;2023-04-03T14:11:26;9.00;99.90
20035;DHT22;10178;48.034;9.800;2023-04-03T14:13:55;9.10;99.90
20035;DHT22;10178;48.034;9.800;2023-04-03T14:16:23;8.60;99.90
20035;DHT22;10178;48.034;9.800;2023-04-03T14:18:50;8.80;99.90
20035;DHT22;10178;48.034;9.800;2023-04-03T14:21:19;9.00;99.90
20035;DHT22;10178;48.034;9.800;2023-04-03T14:23:45;9.00;99.90
20035;DHT22;10178;48.034;9.800;2023-04-03T14:26:17;9.10;99.90
20035;DHT22;10178;48.034;9.800;2023-04-03T14:28:46;9.10;99.90
20035;DHT22;10178;48.034;9.800;2023-04-03T14:31:13;9.10;99.90
20035;DHT22;10178;48.034;9.800;2023-04-03T14:33:40;9.20;99.90
20035;DHT22;10178;48.034;9.800;2023-04-03T14:36:21;9.20;99.90
20035;DHT22;10178;48.034;9.800;2023-04-03T14:38:49;9.20;99.90
20035;DHT22;10178;48.034;9.800;2023-04-03T14:41:17;9.20;99.90
20035;DHT22;10178;48.034;9.800;2023-04-03T14:43:44;9.20;99.90
20035;DHT22;10178;48.034;9.800;2023-04-03T14:48:41;8.60;99.90
20035;DHT22;10178;48.034;9.800;2023-04-03T14:51:08;7.90;99.90
20035;DHT22;10178;48.034;9.800;2023-04-03T14:53:34;7.80;99.90
20035;DHT22;10178;48.034;9.800;2023-04-03T14:56:00;7.40;99.90
20035;DHT22;10178;48.034;9.800;2023-04-03T14:58:26;7.90;99.90
20035;DHT22;10178;48.034;9.800;2023-04-03T15:00:52;8.30;99.90
20035;DHT22;10178;48.034;9.800;2023-04-03T15:03:20;8.50;99.90
20035;DHT22;10178;48.034;9.800;2023-04-03T15:05:48;8.80;99.90
20035;DHT22;10178;48.034;9.800;2023-04-03T15:08:25;9.10;99.90
20035;DHT22;10178;48.034;9.800;2023-04-03T15:10:52;9.50;99.90
20035;DHT22;10178;48.034;9.800;2023-04-03T15:13:19;9.80;99.90
20035;DHT22;10178;48.034;9.800;2023-04-03T15:15:45;9.70;99.90
20035;DHT22;10178;48.034;9.800;2023-04-03T15:18:17;9.90;99.90
20035;DHT22;10178;48.034;9.800;2023-04-03T15:20:45;9.80;99.90
20035;DHT22;10178;48.034;9.800;2023-04-03T15:23:13;10.00;99.90
20035;DHT22;10178;48.034;9.800;2023-04-03T15:25:47;10.00;99.90
20035;DHT22;10178;48.034;9.800;2023-04-03T15:28:33;10.10;99.90
20035;DHT22;10178;48.034;9.800;2023-04-03T15:31:00;10.20;99.90
20035;DHT22;10178;48.034;9.800;2023-04-03T15:33:26;9.80;99.90
20035;DHT22;10178;48.034;9.800;2023-04-03T15:35:52;9.30;99.90
20035;DHT22;10178;48.034;9.800;2023-04-03T15:38:18;9.40;99.90
20035;DHT22;10178;48.034;9.800;2023-04-03T15:40:43;9.30;99.90
20035;DHT22;10178;48.034;9.800;2023-04-03T15:43:09;9.40;99.90
20035;DHT22;10178;48.034;9.800;2023-04-03T15:45:36;9.70;99.90
20035;DHT22;10178;48.034;9.800;2023-04-03T15:48:03;9.50;99.90
20035;DHT22;10178;48.034;9.800;2023-04-03T15:50:31;9.30;99.90
20035;DHT22;10178;48.034;9.800;2023-04-03T15:52:56;8.20;99.90
20035;DHT22;10178;48.034;9.800;2023-04-03T15:55:28;7.90;99.90
20035;DHT22;10178;48.034;9.800;2023-04-03T15:57:54;8.30;99.90
20035;DHT22;10178;48.034;9.800;2023-04-03T16:00:21;9.00;99.90
20035;DHT22;10178;48.034;9.800;2023-04-03T16:02:49;9.30;99.90
20035;DHT22;10178;48.034;9.800;2023-04-03T16:05:16;9.70;99.90
20035;DHT22;10178;48.034;9.800;2023-04-03T16:07:44;9.90;99.90
20035;DHT22;10178;48.034;9.800;2023-04-03T16:10:11;10.00;99.90
20035;DHT22;10178;48.034;9.800;2023-04-03T16:12:36;10.00;99.90
20035;DHT22;10178;48.034;9.800;2023-04-03T16:15:03;9.40;99.90
20035;DHT22;10178;48.034;9.800;2023-04-03T16:17:31;9.30;99.90
20035;DHT22;10178;48.034;9.800;2023-04-03T16:19:57;9.60;99.90
20035;DHT22;10178;48.034;9.800;2023-04-03T16:22:25;9.50;99.90
20035;DHT22;10178;48.034;9.800;2023-04-03T16:24:51;9.80;99.90
20035;DHT22;10178;48.034;9.800;2023-04-03T16:27:17;9.60;99.90
20035;DHT22;10178;48.034;9.800;2023-04-03T16:29:42;9.70;99.90
20035;DHT22;10178;48.034;9.800;2023-04-03T16:32:08;9.60;99.90
20035;DHT22;10178;48.034;9.800;2023-04-03T16:34:34;9.50;99.90
20035;DHT22;10178;48.034;9.800;2023-04-03T16:37:00;9.40;99.90
20035;DHT22;10178;48.034;9.800;2023-04-03T16:39:26;9.40;99.90
20035;DHT22;10178;48.034;9.800;2023-04-03T16:41:51;9.10;99.90
20035;DHT22;10178;48.034;9.800;2023-04-03T16:44:17;9.30;99.90
20035;DHT22;10178;48.034;9.800;2023-04-03T16:46:43;9.40;99.90
20035;DHT22;10178;48.034;9.800;2023-04-03T16:49:09;9.50;99.90
20035;DHT22;10178;48.034;9.800;2023-04-03T16:51:34;9.10;99.90
20035;DHT22;10178;48.034;9.800;2023-04-03T16:54:00;9.10;99.90
20035;DHT22;10178;48.034;9.800;2023-04-03T16:56:26;9.30;99.90
20035;DHT22;10178;48.034;9.800;2023-04-03T16:58:54;8.50;99.90
20035;DHT22;10178;48.034;9.800;2023-04-03T17:01:21;8.80;99.90
20035;DHT22;10178;48.034;9.800;2023-04-03T17:03:48;8.90;99.90
20035;DHT22;10178;48.034;9.800;2023-04-03T17:06:18;9.00;99.90
20035;DHT22;10178;48.034;9.800;2023-04-03T17:08:45;9.00;99.90
20035;DHT22;10178;48.034;9.800;2023-04-03T17:11:11;9.00;99.90
20035;DHT22;10178;48.034;9.800;2023-04-03T17:13:36;9.10;99.90
20035;DHT22;10178;48.034;9.800;2023-04-03T17:16:04;9.30;99.90
20035;DHT22;10178;48.034;9.800;2023-04-03T17:18:31;9.30;99.90
20035;DHT22;10178;48.034;9.800;2023-04-03T17:20:57;9.40;99.90
20035;DHT22;10178;48.034;9.800;2023-04-03T17:23:25;9.30;99.90
20035;DHT22;10178;48.034;9.800;2023-04-03T17:25:51;9.40;99.90
20035;DHT22;10178;48.034;9.800;2023-04-03T17:28:17;9.40;99.90
20035;DHT22;10178;48.034;9.800;2023-04-03T17:30:42;9.40;99.90